sensor_id;sensor_type;location;lat;lon;timestamp;temperature;humidity
66710;DHT22;53624;0.000;0.000;2024-03-22T00:02:07;19.60;94.20
66710;DHT22;53624;0.000;0.000;2024-03-22T00:04:35;19.60;94.20
66710;DHT22;53624;0.000;0.000;2024-03-22T00:07:02;19.60;94.20
66710;DHT22;53624;0.000;0.000;2024-03-22T00:09:30;19.60;94.20
66710;DHT22;53624;0.000;0.000;2024-03-22T00:11:56;19.60;94.20
66710;DHT22;53624;0.000;0.000;2024-03-22T00:14:23;19.60;94.10
66710;DHT22;53624;0.000;0.000;2024-03-22T00:16:49;19.60;94.10
66710;DHT22;53624;0.000;0.000;2024-03-22T00:19:17;19.60;94.10
66710;DHT22;53624;0.000;0.000;2024-03-22T00:21:43;19.50;94.20
66710;DHT22;53624;0.000;0.000;2024-03-22T00:24:11;19.50;94.10
66710;DHT22;53624;0.000;0.000;2024-03-22T00:26:37;19.50;94.10
66710;DHT22;53624;0.000;0.000;2024-03-22T00:29:05;19.50;94.10
66710;DHT22;53624;0.000;0.000;2024-03-22T00:31:31;19.50;94.10
66710;DHT22;53624;0.000;0.000;2024-03-22T00:33:58;19.50;94.10
66710;DHT22;53624;0.000;0.000;2024-03-22T00:36:24;19.50;94.50
66710;DHT22;53624;0.000;0.000;2024-03-22T00:38:52;19.40;94.10
66710;DHT22;53624;0.000;0.000;2024-03-22T00:41:19;19.40;94.10
66710;DHT22;53624;0.000;0.000;2024-03-22T00:43:46;19.40;94.20
66710;DHT22;53624;0.000;0.000;2024-03-22T00:46:12;19.40;94.20
66710;DHT22;53624;0.000;0.000;2024-03-22T00:48:40;19.40;94.20
66710;DHT22;53624;0.000;0.000;2024-03-22T00:51:06;19.40;94.20
66710;DHT22;53624;0.000;0.000;2024-03-22T00:53:33;19.30;94.20
66710;DHT22;53624;0.000;0.000;2024-03-22T00:55:59;19.30;94.20
66710;DHT22;53624;0.000;0.000;2024-03-22T00:58:28;19.30;94.20
66710;DHT22;53624;0.000;0.000;2024-03-22T01:00:54;19.30;94.20
66710;DHT22;53624;0.000;0.000;2024-03-22T01:03:21;19.30;94.30
66710;DHT22;53624;0.000;0.000;2024-03-22T01:05:48;19.30;94.30
66710;DHT22;53624;0.000;0.000;2024-03-22T01:08:15;19.20;94.30
66710;DHT22;53624;0.000;0.000;2024-03-22T01:10:41;19.30;94.30
66710;DHT22;53624;0.000;0.000;2024-03-22T01:13:08;19.20;94.30
66710;DHT22;53624;0.000;0.000;2024-03-22T01:15:36;19.20;94.20
66710;DHT22;53624;0.000;0.000;2024-03-22T01:18:03;19.20;94.30
66710;DHT22;53624;0.000;0.000;2024-03-22T01:20:30;19.20;94.30
66710;DHT22;53624;0.000;0.000;2024-03-22T01:22:58;19.20;94.30
66710;DHT22;53624;0.000;0.000;2024-03-22T01:25:24;19.20;94.30
66710;DHT22;53624;0.000;0.000;2024-03-22T01:27:52;19.20;94.30
66710;DHT22;53624;0.000;0.000;2024-03-22T01:30:18;19.20;94.40
66710;DHT22;53624;0.000;0.000;2024-03-22T01:32:46;19.10;94.30
66710;DHT22;53624;0.000;0.000;2024-03-22T01:35:13;19.10;94.30
66710;DHT22;53624;0.000;0.000;2024-03-22T01:37:40;19.10;94.30
66710;DHT22;53624;0.000;0.000;2024-03-22T01:40:07;19.10;94.40
66710;DHT22;53624;0.000;0.000;2024-03-22T01:42:35;19.10;94.30
66710;DHT22;53624;0.000;0.000;2024-03-22T01:45:01;19.10;94.40
66710;DHT22;53624;0.000;0.000;2024-03-22T01:47:29;19.10;94.40
66710;DHT22;53624;0.000;0.000;2024-03-22T01:49:57;19.10;94.40
66710;DHT22;53624;0.000;0.000;2024-03-22T01:52:24;19.00;94.30
66710;DHT22;53624;0.000;0.000;2024-03-22T01:54:50;19.00;94.40
66710;DHT22;53624;0.000;0.000;2024-03-22T01:57:17;19.00;94.40
66710;DHT22;53624;0.000;0.000;2024-03-22T01:59:43;19.00;94.40
66710;DHT22;53624;0.000;0.000;2024-03-22T02:02:14;19.00;94.40
66710;DHT22;53624;0.000;0.000;2024-03-22T02:04:40;19.00;94.40
66710;DHT22;53624;0.000;0.000;2024-03-22T02:07:09;19.00;94.40
66710;DHT22;53624;0.000;0.000;2024-03-22T02:09:35;19.00;94.40
66710;DHT22;53624;0.000;0.000;2024-03-22T02:12:03;19.00;94.40
66710;DHT22;53624;0.000;0.000;2024-03-22T02:14:29;19.00;94.40
66710;DHT22;53624;0.000;0.000;2024-03-22T02:16:56;19.00;94.40
66710;DHT22;53624;0.000;0.000;2024-03-22T02:19:22;19.00;94.40
66710;DHT22;53624;0.000;0.000;2024-03-22T02:21:50;19.00;94.40
66710;DHT22;53624;0.000;0.000;2024-03-22T02:24:17;18.90;94.40
66710;DHT22;53624;0.000;0.000;2024-03-22T02:26:44;18.90;94.40
66710;DHT22;53624;0.000;0.000;2024-03-22T02:32:33;18.90;94.40
66710;DHT22;53624;0.000;0.000;2024-03-22T02:35:00;18.90;94.40
66710;DHT22;53624;0.000;0.000;2024-03-22T02:37:26;18.90;94.40
66710;DHT22;53624;0.000;0.000;2024-03-22T02:39:56;18.90;94.40
66710;DHT22;53624;0.000;0.000;2024-03-22T02:42:22;18.80;94.40
66710;DHT22;53624;0.000;0.000;2024-03-22T02:44:49;18.80;94.40
66710;DHT22;53624;0.000;0.000;2024-03-22T02:47:15;18.80;94.40
66710;DHT22;53624;0.000;0.000;2024-03-22T02:49:42;18.80;94.40
66710;DHT22;53624;0.000;0.000;2024-03-22T02:52:09;18.80;94.40
66710;DHT22;53624;0.000;0.000;2024-03-22T02:54:36;18.80;94.50
66710;DHT22;53624;0.000;0.000;2024-03-22T02:57:03;18.80;94.50
66710;DHT22;53624;0.000;0.000;2024-03-22T02:59:31;18.80;94.50
66710;DHT22;53624;0.000;0.000;2024-03-22T03:01:57;18.80;94.50
66710;DHT22;53624;0.000;0.000;2024-03-22T03:04:24;18.80;94.50
66710;DHT22;53624;0.000;0.000;2024-03-22T03:06:50;18.80;94.50
66710;DHT22;53624;0.000;0.000;2024-03-22T03:09:17;18.70;94.50
66710;DHT22;53624;0.000;0.000;2024-03-22T03:11:44;18.70;94.50
66710;DHT22;53624;0.000;0.000;2024-03-22T03:14:12;18.70;94.50
66710;DHT22;53624;0.000;0.000;2024-03-22T03:16:38;18.70;94.50
66710;DHT22;53624;0.000;0.000;2024-03-22T03:19:05;18.70;94.60
66710;DHT22;53624;0.000;0.000;2024-03-22T03:21:32;18.70;94.60
66710;DHT22;53624;0.000;0.000;2024-03-22T03:23:59;18.70;94.60
66710;DHT22;53624;0.000;0.000;2024-03-22T03:26:25;18.70;94.60
66710;DHT22;53624;0.000;0.000;2024-03-22T03:28:52;18.70;94.60
66710;DHT22;53624;0.000;0.000;2024-03-22T03:31:22;18.70;94.60
66710;DHT22;53624;0.000;0.000;2024-03-22T03:33:49;18.70;94.60
66710;DHT22;53624;0.000;0.000;2024-03-22T03:36:15;18.70;94.60
66710;DHT22;53624;0.000;0.000;2024-03-22T03:38:42;18.70;95.00
66710;DHT22;53624;0.000;0.000;2024-03-22T03:41:08;18.70;94.70
66710;DHT22;53624;0.000;0.000;2024-03-22T03:43:36;18.60;94.70
66710;DHT22;53624;0.000;0.000;2024-03-22T03:46:02;18.60;94.70
66710;DHT22;53624;0.000;0.000;2024-03-22T03:48:30;18.60;94.70
66710;DHT22;53624;0.000;0.000;2024-03-22T03:50:57;18.60;95.00
66710;DHT22;53624;0.000;0.000;2024-03-22T03:53:28;18.60;94.70
66710;DHT22;53624;0.000;0.000;2024-03-22T03:55:55;18.60;94.70
66710;DHT22;53624;0.000;0.000;2024-03-22T03:58:22;18.60;94.70
66710;DHT22;53624;0.000;0.000;2024-03-22T04:00:48;18.50;94.70
66710;DHT22;53624;0.000;0.000;2024-03-22T04:03:15;18.60;94.70
66710;DHT22;53624;0.000;0.000;2024-03-22T04:05:43;18.60;94.70
66710;DHT22;53624;0.000;0.000;2024-03-22T04:08:10;18.50;94.70
66710;DHT22;53624;0.000;0.000;2024-03-22T04:10:36;18.50;94.70
66710;DHT22;53624;0.000;0.000;2024-03-22T04:13:03;18.50;94.80
66710;DHT22;53624;0.000;0.000;2024-03-22T04:15:33;18.50;94.80
66710;DHT22;53624;0.000;0.000;2024-03-22T04:18:00;18.50;94.80
66710;DHT22;53624;0.000;0.000;2024-03-22T04:20:27;18.50;94.80
66710;DHT22;53624;0.000;0.000;2024-03-22T04:22:55;18.50;94.80
66710;DHT22;53624;0.000;0.000;2024-03-22T04:25:21;18.50;94.80
66710;DHT22;53624;0.000;0.000;2024-03-22T04:27:49;18.50;94.80
66710;DHT22;53624;0.000;0.000;2024-03-22T04:30:15;18.50;94.90
66710;DHT22;53624;0.000;0.000;2024-03-22T04:32:42;18.50;94.90
66710;DHT22;53624;0.000;0.000;2024-03-22T04:35:11;18.50;94.90
66710;DHT22;53624;0.000;0.000;2024-03-22T04:37:38;18.50;94.90
66710;DHT22;53624;0.000;0.000;2024-03-22T04:40:08;18.50;94.90
66710;DHT22;53624;0.000;0.000;2024-03-22T04:42:35;18.40;94.90
66710;DHT22;53624;0.000;0.000;2024-03-22T04:45:02;18.40;94.90
66710;DHT22;53624;0.000;0.000;2024-03-22T04:47:30;18.40;94.90
66710;DHT22;53624;0.000;0.000;2024-03-22T04:49:56;18.40;94.90
66710;DHT22;53624;0.000;0.000;2024-03-22T04:52:23;18.40;94.90
66710;DHT22;53624;0.000;0.000;2024-03-22T04:54:49;18.40;94.90
66710;DHT22;53624;0.000;0.000;2024-03-22T04:57:18;18.40;94.90
66710;DHT22;53624;0.000;0.000;2024-03-22T04:59:45;18.40;95.00
66710;DHT22;53624;0.000;0.000;2024-03-22T05:02:11;18.40;94.90
66710;DHT22;53624;0.000;0.000;2024-03-22T05:04:38;18.40;95.00
66710;DHT22;53624;0.000;0.000;2024-03-22T05:07:05;18.30;94.90
66710;DHT22;53624;0.000;0.000;2024-03-22T05:09:32;18.40;95.00
66710;DHT22;53624;0.000;0.000;2024-03-22T05:11:58;18.30;94.90
66710;DHT22;53624;0.000;0.000;2024-03-22T05:14:27;18.40;95.00
66710;DHT22;53624;0.000;0.000;2024-03-22T05:16:53;18.30;94.90
66710;DHT22;53624;0.000;0.000;2024-03-22T05:19:20;18.40;95.00
66710;DHT22;53624;0.000;0.000;2024-03-22T05:21:46;18.40;95.00
66710;DHT22;53624;0.000;0.000;2024-03-22T05:24:13;18.30;95.00
66710;DHT22;53624;0.000;0.000;2024-03-22T05:26:40;18.30;95.00
66710;DHT22;53624;0.000;0.000;2024-03-22T05:29:07;18.30;95.00
66710;DHT22;53624;0.000;0.000;2024-03-22T05:31:35;18.30;95.00
66710;DHT22;53624;0.000;0.000;2024-03-22T05:34:12;18.30;95.10
66710;DHT22;53624;0.000;0.000;2024-03-22T05:36:38;18.30;95.10
66710;DHT22;53624;0.000;0.000;2024-03-22T05:39:05;18.30;95.10
66710;DHT22;53624;0.000;0.000;2024-03-22T05:41:32;18.30;95.00
66710;DHT22;53624;0.000;0.000;2024-03-22T05:43:59;18.30;95.10
66710;DHT22;53624;0.000;0.000;2024-03-22T05:46:25;18.30;95.10
66710;DHT22;53624;0.000;0.000;2024-03-22T05:48:54;18.30;95.10
66710;DHT22;53624;0.000;0.000;2024-03-22T05:51:20;18.20;95.10
66710;DHT22;53624;0.000;0.000;2024-03-22T05:53:47;18.30;95.10
66710;DHT22;53624;0.000;0.000;2024-03-22T05:56:13;18.30;95.10
66710;DHT22;53624;0.000;0.000;2024-03-22T05:58:41;18.30;95.10
66710;DHT22;53624;0.000;0.000;2024-03-22T06:01:07;18.30;95.10
66710;DHT22;53624;0.000;0.000;2024-03-22T06:03:34;18.30;95.10
66710;DHT22;53624;0.000;0.000;2024-03-22T06:06:02;18.30;95.10
66710;DHT22;53624;0.000;0.000;2024-03-22T06:08:29;18.30;95.10
66710;DHT22;53624;0.000;0.000;2024-03-22T06:10:57;18.30;95.10
66710;DHT22;53624;0.000;0.000;2024-03-22T06:13:24;18.40;95.10
66710;DHT22;53624;0.000;0.000;2024-03-22T06:15:51;18.30;95.10
66710;DHT22;53624;0.000;0.000;2024-03-22T06:18:18;18.30;95.00
66710;DHT22;53624;0.000;0.000;2024-03-22T06:20:45;18.40;95.10
66710;DHT22;53624;0.000;0.000;2024-03-22T06:23:13;18.40;95.00
66710;DHT22;53624;0.000;0.000;2024-03-22T06:25:40;18.40;95.00
66710;DHT22;53624;0.000;0.000;2024-03-22T06:28:06;18.40;95.00
66710;DHT22;53624;0.000;0.000;2024-03-22T06:30:33;18.40;95.00
66710;DHT22;53624;0.000;0.000;2024-03-22T06:33:00;18.40;95.40
66710;DHT22;53624;0.000;0.000;2024-03-22T06:35:27;18.40;95.00
66710;DHT22;53624;0.000;0.000;2024-03-22T06:37:53;18.50;95.00
66710;DHT22;53624;0.000;0.000;2024-03-22T06:40:22;18.50;95.00
66710;DHT22;53624;0.000;0.000;2024-03-22T06:42:48;18.50;95.00
66710;DHT22;53624;0.000;0.000;2024-03-22T06:45:15;18.60;94.90
66710;DHT22;53624;0.000;0.000;2024-03-22T06:47:41;18.60;95.00
66710;DHT22;53624;0.000;0.000;2024-03-22T06:50:09;18.70;95.00
66710;DHT22;53624;0.000;0.000;2024-03-22T06:52:35;18.70;94.90
66710;DHT22;53624;0.000;0.000;2024-03-22T06:55:02;18.70;94.90
66710;DHT22;53624;0.000;0.000;2024-03-22T06:57:30;18.80;94.90
66710;DHT22;53624;0.000;0.000;2024-03-22T06:59:59;18.80;94.90
66710;DHT22;53624;0.000;0.000;2024-03-22T07:02:25;18.80;94.80
66710;DHT22;53624;0.000;0.000;2024-03-22T07:04:53;18.90;94.90
66710;DHT22;53624;0.000;0.000;2024-03-22T07:07:19;18.90;94.80
66710;DHT22;53624;0.000;0.000;2024-03-22T07:09:46;19.00;94.80
66710;DHT22;53624;0.000;0.000;2024-03-22T07:12:13;19.00;94.80
66710;DHT22;53624;0.000;0.000;2024-03-22T07:14:42;19.10;94.80
66710;DHT22;53624;0.000;0.000;2024-03-22T07:17:08;19.10;94.80
66710;DHT22;53624;0.000;0.000;2024-03-22T07:19:35;19.10;94.80
66710;DHT22;53624;0.000;0.000;2024-03-22T07:22:02;19.20;94.80
66710;DHT22;53624;0.000;0.000;2024-03-22T07:24:29;19.20;94.80
66710;DHT22;53624;0.000;0.000;2024-03-22T07:26:55;19.40;94.70
66710;DHT22;53624;0.000;0.000;2024-03-22T07:29:22;19.60;94.40
66710;DHT22;53624;0.000;0.000;2024-03-22T07:31:50;19.60;94.30
66710;DHT22;53624;0.000;0.000;2024-03-22T07:34:17;19.60;94.40
66710;DHT22;53624;0.000;0.000;2024-03-22T07:36:43;19.60;94.50
66710;DHT22;53624;0.000;0.000;2024-03-22T07:39:10;19.60;94.60
66710;DHT22;53624;0.000;0.000;2024-03-22T07:41:36;19.70;94.40
66710;DHT22;53624;0.000;0.000;2024-03-22T07:44:04;19.70;94.30
66710;DHT22;53624;0.000;0.000;2024-03-22T07:46:31;19.80;94.30
66710;DHT22;53624;0.000;0.000;2024-03-22T07:48:59;19.90;94.20
66710;DHT22;53624;0.000;0.000;2024-03-22T07:51:26;19.80;94.20
66710;DHT22;53624;0.000;0.000;2024-03-22T07:53:53;19.90;94.30
66710;DHT22;53624;0.000;0.000;2024-03-22T07:56:19;19.90;94.30
66710;DHT22;53624;0.000;0.000;2024-03-22T07:58:46;20.00;94.40
66710;DHT22;53624;0.000;0.000;2024-03-22T08:01:13;20.10;94.20
66710;DHT22;53624;0.000;0.000;2024-03-22T08:03:40;20.30;94.10
66710;DHT22;53624;0.000;0.000;2024-03-22T08:06:07;20.60;93.70
66710;DHT22;53624;0.000;0.000;2024-03-22T08:08:34;21.00;93.20
66710;DHT22;53624;0.000;0.000;2024-03-22T08:11:01;21.50;92.50
66710;DHT22;53624;0.000;0.000;2024-03-22T08:13:28;22.00;92.00
66710;DHT22;53624;0.000;0.000;2024-03-22T08:15:54;22.70;91.40
66710;DHT22;53624;0.000;0.000;2024-03-22T08:18:21;23.50;90.50
66710;DHT22;53624;0.000;0.000;2024-03-22T08:20:47;24.20;89.00
66710;DHT22;53624;0.000;0.000;2024-03-22T08:23:16;24.80;87.30
66710;DHT22;53624;0.000;0.000;2024-03-22T08:25:43;25.20;85.80
66710;DHT22;53624;0.000;0.000;2024-03-22T08:28:10;25.70;84.80
66710;DHT22;53624;0.000;0.000;2024-03-22T08:30:37;26.00;84.10
66710;DHT22;53624;0.000;0.000;2024-03-22T08:33:04;26.30;83.50
66710;DHT22;53624;0.000;0.000;2024-03-22T08:35:30;25.60;84.70
66710;DHT22;53624;0.000;0.000;2024-03-22T08:37:57;25.10;86.90
66710;DHT22;53624;0.000;0.000;2024-03-22T08:40:25;25.50;86.10
66710;DHT22;53624;0.000;0.000;2024-03-22T08:42:53;26.00;85.10
66710;DHT22;53624;0.000;0.000;2024-03-22T08:45:19;25.60;85.60
66710;DHT22;53624;0.000;0.000;2024-03-22T08:47:46;24.90;88.00
66710;DHT22;53624;0.000;0.000;2024-03-22T08:50:13;24.60;89.30
66710;DHT22;53624;0.000;0.000;2024-03-22T08:52:40;24.70;89.40
66710;DHT22;53624;0.000;0.000;2024-03-22T08:55:06;24.90;88.90
66710;DHT22;53624;0.000;0.000;2024-03-22T08:57:35;24.90;89.20
66710;DHT22;53624;0.000;0.000;2024-03-22T09:00:01;24.70;86.30
66710;DHT22;53624;0.000;0.000;2024-03-22T09:02:29;24.30;86.70
66710;DHT22;53624;0.000;0.000;2024-03-22T09:04:56;24.00;87.80
66710;DHT22;53624;0.000;0.000;2024-03-22T09:07:23;23.90;88.10
66710;DHT22;53624;0.000;0.000;2024-03-22T09:09:49;24.00;87.70
66710;DHT22;53624;0.000;0.000;2024-03-22T09:12:16;24.20;86.90
66710;DHT22;53624;0.000;0.000;2024-03-22T09:14:44;24.50;86.10
66710;DHT22;53624;0.000;0.000;2024-03-22T09:17:12;24.60;85.90
66710;DHT22;53624;0.000;0.000;2024-03-22T09:19:38;24.60;85.50
66710;DHT22;53624;0.000;0.000;2024-03-22T09:22:05;24.80;85.00
66710;DHT22;53624;0.000;0.000;2024-03-22T09:24:31;25.00;84.40
66710;DHT22;53624;0.000;0.000;2024-03-22T09:26:58;25.10;83.60
66710;DHT22;53624;0.000;0.000;2024-03-22T09:29:24;25.10;83.70
66710;DHT22;53624;0.000;0.000;2024-03-22T09:31:53;25.10;83.70
66710;DHT22;53624;0.000;0.000;2024-03-22T09:34:19;24.90;84.00
66710;DHT22;53624;0.000;0.000;2024-03-22T09:36:46;24.90;84.30
66710;DHT22;53624;0.000;0.000;2024-03-22T09:39:13;24.90;84.20
66710;DHT22;53624;0.000;0.000;2024-03-22T09:41:42;25.10;84.20
66710;DHT22;53624;0.000;0.000;2024-03-22T09:44:08;25.10;84.10
66710;DHT22;53624;0.000;0.000;2024-03-22T09:46:38;25.10;84.00
66710;DHT22;53624;0.000;0.000;2024-03-22T09:49:06;25.10;84.10
66710;DHT22;53624;0.000;0.000;2024-03-22T09:51:34;25.00;84.30
66710;DHT22;53624;0.000;0.000;2024-03-22T09:54:01;24.90;84.50
66710;DHT22;53624;0.000;0.000;2024-03-22T09:56:28;24.90;84.60
66710;DHT22;53624;0.000;0.000;2024-03-22T09:58:56;24.80;84.80
66710;DHT22;53624;0.000;0.000;2024-03-22T10:01:23;24.90;84.90
66710;DHT22;53624;0.000;0.000;2024-03-22T10:03:50;25.00;84.70
66710;DHT22;53624;0.000;0.000;2024-03-22T10:06:19;25.10;84.20
66710;DHT22;53624;0.000;0.000;2024-03-22T10:08:45;25.20;83.80
66710;DHT22;53624;0.000;0.000;2024-03-22T10:11:12;25.30;83.60
66710;DHT22;53624;0.000;0.000;2024-03-22T10:13:39;25.40;83.40
66710;DHT22;53624;0.000;0.000;2024-03-22T10:16:06;25.50;83.50
66710;DHT22;53624;0.000;0.000;2024-03-22T10:18:33;25.50;83.30
66710;DHT22;53624;0.000;0.000;2024-03-22T10:21:00;25.60;83.30
66710;DHT22;53624;0.000;0.000;2024-03-22T10:23:28;25.70;83.30
66710;DHT22;53624;0.000;0.000;2024-03-22T10:25:56;25.80;83.00
66710;DHT22;53624;0.000;0.000;2024-03-22T10:28:22;25.90;83.20
66710;DHT22;53624;0.000;0.000;2024-03-22T10:30:50;25.90;83.00
66710;DHT22;53624;0.000;0.000;2024-03-22T10:33:17;26.00;83.00
66710;DHT22;53624;0.000;0.000;2024-03-22T10:35:45;26.00;83.10
66710;DHT22;53624;0.000;0.000;2024-03-22T10:38:12;26.10;83.20
66710;DHT22;53624;0.000;0.000;2024-03-22T10:40:41;26.10;82.80
66710;DHT22;53624;0.000;0.000;2024-03-22T10:43:10;26.10;82.80
66710;DHT22;53624;0.000;0.000;2024-03-22T10:45:37;26.10;82.90
66710;DHT22;53624;0.000;0.000;2024-03-22T10:48:04;26.20;83.00
66710;DHT22;53624;0.000;0.000;2024-03-22T10:50:33;26.30;83.00
66710;DHT22;53624;0.000;0.000;2024-03-22T10:53:02;26.30;82.80
66710;DHT22;53624;0.000;0.000;2024-03-22T10:55:33;26.40;82.70
66710;DHT22;53624;0.000;0.000;2024-03-22T10:58:00;26.40;82.60
66710;DHT22;53624;0.000;0.000;2024-03-22T11:00:28;26.50;82.60
66710;DHT22;53624;0.000;0.000;2024-03-22T11:02:54;26.60;82.50
66710;DHT22;53624;0.000;0.000;2024-03-22T11:05:21;26.60;82.40
66710;DHT22;53624;0.000;0.000;2024-03-22T11:07:47;26.70;82.30
66710;DHT22;53624;0.000;0.000;2024-03-22T11:10:15;26.70;82.10
66710;DHT22;53624;0.000;0.000;2024-03-22T11:12:42;26.80;82.00
66710;DHT22;53624;0.000;0.000;2024-03-22T11:15:11;26.80;81.80
66710;DHT22;53624;0.000;0.000;2024-03-22T11:17:38;26.90;81.60
66710;DHT22;53624;0.000;0.000;2024-03-22T11:20:05;26.90;81.30
66710;DHT22;53624;0.000;0.000;2024-03-22T11:22:32;27.00;81.00
66710;DHT22;53624;0.000;0.000;2024-03-22T11:24:59;27.00;81.10
66710;DHT22;53624;0.000;0.000;2024-03-22T11:27:25;27.10;81.00
66710;DHT22;53624;0.000;0.000;2024-03-22T11:29:52;27.10;80.70
66710;DHT22;53624;0.000;0.000;2024-03-22T11:32:22;27.10;80.70
66710;DHT22;53624;0.000;0.000;2024-03-22T11:34:50;27.20;80.60
66710;DHT22;53624;0.000;0.000;2024-03-22T11:37:16;27.30;80.80
66710;DHT22;53624;0.000;0.000;2024-03-22T11:39:43;27.30;80.70
66710;DHT22;53624;0.000;0.000;2024-03-22T11:42:09;27.30;80.60
66710;DHT22;53624;0.000;0.000;2024-03-22T11:44:37;27.30;80.30
66710;DHT22;53624;0.000;0.000;2024-03-22T11:47:05;27.40;80.20
66710;DHT22;53624;0.000;0.000;2024-03-22T11:49:33;27.40;80.20
66710;DHT22;53624;0.000;0.000;2024-03-22T11:52:00;27.50;80.40
66710;DHT22;53624;0.000;0.000;2024-03-22T11:54:27;27.50;80.20
66710;DHT22;53624;0.000;0.000;2024-03-22T11:56:55;27.50;80.10
66710;DHT22;53624;0.000;0.000;2024-03-22T11:59:22;27.50;80.20
66710;DHT22;53624;0.000;0.000;2024-03-22T12:01:48;27.60;80.30
66710;DHT22;53624;0.000;0.000;2024-03-22T12:04:15;27.60;80.10
66710;DHT22;53624;0.000;0.000;2024-03-22T12:06:43;27.70;80.00
66710;DHT22;53624;0.000;0.000;2024-03-22T12:09:11;27.70;79.60
66710;DHT22;53624;0.000;0.000;2024-03-22T12:11:38;27.70;78.10
66710;DHT22;53624;0.000;0.000;2024-03-22T12:14:05;27.40;73.80
66710;DHT22;53624;0.000;0.000;2024-03-22T12:16:32;27.40;74.40
66710;DHT22;53624;0.000;0.000;2024-03-22T12:18:59;26.80;73.20
66710;DHT22;53624;0.000;0.000;2024-03-22T12:21:25;26.00;69.20
66710;DHT22;53624;0.000;0.000;2024-03-22T12:23:54;25.90;73.20
66710;DHT22;53624;0.000;0.000;2024-03-22T12:26:20;26.50;68.50
66710;DHT22;53624;0.000;0.000;2024-03-22T12:28:47;26.20;72.20
66710;DHT22;53624;0.000;0.000;2024-03-22T12:31:16;26.40;72.00
66710;DHT22;53624;0.000;0.000;2024-03-22T12:33:44;26.10;66.60
66710;DHT22;53624;0.000;0.000;2024-03-22T12:36:10;26.10;71.40
66710;DHT22;53624;0.000;0.000;2024-03-22T12:38:37;26.50;69.70
66710;DHT22;53624;0.000;0.000;2024-03-22T12:41:05;26.00;73.10
66710;DHT22;53624;0.000;0.000;2024-03-22T12:43:32;25.70;68.80
66710;DHT22;53624;0.000;0.000;2024-03-22T12:45:59;25.60;67.80
66710;DHT22;53624;0.000;0.000;2024-03-22T12:48:26;25.50;70.70
66710;DHT22;53624;0.000;0.000;2024-03-22T12:50:52;25.70;69.00
66710;DHT22;53624;0.000;0.000;2024-03-22T12:53:20;25.50;69.20
66710;DHT22;53624;0.000;0.000;2024-03-22T12:55:46;25.10;69.00
66710;DHT22;53624;0.000;0.000;2024-03-22T12:58:15;24.50;70.40
66710;DHT22;53624;0.000;0.000;2024-03-22T13:00:41;24.10;66.70
66710;DHT22;53624;0.000;0.000;2024-03-22T13:03:08;24.20;70.00
66710;DHT22;53624;0.000;0.000;2024-03-22T13:05:36;24.90;71.60
66710;DHT22;53624;0.000;0.000;2024-03-22T13:08:03;25.60;72.60
66710;DHT22;53624;0.000;0.000;2024-03-22T13:10:30;25.30;69.10
66710;DHT22;53624;0.000;0.000;2024-03-22T13:12:57;25.50;73.00
66710;DHT22;53624;0.000;0.000;2024-03-22T13:15:25;25.20;69.10
66710;DHT22;53624;0.000;0.000;2024-03-22T13:17:52;25.30;71.80
66710;DHT22;53624;0.000;0.000;2024-03-22T13:20:18;25.50;71.90
66710;DHT22;53624;0.000;0.000;2024-03-22T13:22:45;26.10;71.10
66710;DHT22;53624;0.000;0.000;2024-03-22T13:25:12;26.40;68.10
66710;DHT22;53624;0.000;0.000;2024-03-22T13:27:39;26.50;70.20
66710;DHT22;53624;0.000;0.000;2024-03-22T13:30:05;26.20;65.40
66710;DHT22;53624;0.000;0.000;2024-03-22T13:32:37;25.70;65.60
66710;DHT22;53624;0.000;0.000;2024-03-22T13:35:03;25.40;68.50
66710;DHT22;53624;0.000;0.000;2024-03-22T13:37:31;25.50;67.50
66710;DHT22;53624;0.000;0.000;2024-03-22T13:39:57;25.80;69.60
66710;DHT22;53624;0.000;0.000;2024-03-22T13:42:24;25.50;71.30
66710;DHT22;53624;0.000;0.000;2024-03-22T13:44:50;25.40;67.60
66710;DHT22;53624;0.000;0.000;2024-03-22T13:47:17;25.50;64.00
66710;DHT22;53624;0.000;0.000;2024-03-22T13:49:45;25.90;68.90
66710;DHT22;53624;0.000;0.000;2024-03-22T13:52:12;26.20;71.10
66710;DHT22;53624;0.000;0.000;2024-03-22T13:54:39;26.30;69.80
66710;DHT22;53624;0.000;0.000;2024-03-22T13:57:06;26.40;69.20
66710;DHT22;53624;0.000;0.000;2024-03-22T13:59:32;26.30;65.50
66710;DHT22;53624;0.000;0.000;2024-03-22T14:02:00;25.40;68.60
66710;DHT22;53624;0.000;0.000;2024-03-22T14:04:26;25.60;69.80
66710;DHT22;53624;0.000;0.000;2024-03-22T14:06:56;25.80;68.60
66710;DHT22;53624;0.000;0.000;2024-03-22T14:09:22;25.70;67.40
66710;DHT22;53624;0.000;0.000;2024-03-22T14:11:49;25.60;65.90
66710;DHT22;53624;0.000;0.000;2024-03-22T14:14:15;25.70;66.80
66710;DHT22;53624;0.000;0.000;2024-03-22T14:16:42;25.70;69.20
66710;DHT22;53624;0.000;0.000;2024-03-22T14:19:09;25.90;69.80
66710;DHT22;53624;0.000;0.000;2024-03-22T14:21:36;25.70;65.30
66710;DHT22;53624;0.000;0.000;2024-03-22T14:24:05;25.60;66.40
66710;DHT22;53624;0.000;0.000;2024-03-22T14:26:33;24.80;67.50
66710;DHT22;53624;0.000;0.000;2024-03-22T14:28:59;24.90;66.00
66710;DHT22;53624;0.000;0.000;2024-03-22T14:31:26;24.90;69.20
66710;DHT22;53624;0.000;0.000;2024-03-22T14:33:53;24.80;70.10
66710;DHT22;53624;0.000;0.000;2024-03-22T14:36:20;24.90;68.80
66710;DHT22;53624;0.000;0.000;2024-03-22T14:38:46;24.70;65.00
66710;DHT22;53624;0.000;0.000;2024-03-22T14:41:15;24.20;70.50
66710;DHT22;53624;0.000;0.000;2024-03-22T14:43:41;24.40;65.90
66710;DHT22;53624;0.000;0.000;2024-03-22T14:46:08;24.10;66.20
66710;DHT22;53624;0.000;0.000;2024-03-22T14:48:34;24.30;68.60
66710;DHT22;53624;0.000;0.000;2024-03-22T14:51:01;24.00;68.60
66710;DHT22;53624;0.000;0.000;2024-03-22T14:53:28;24.10;63.60
66710;DHT22;53624;0.000;0.000;2024-03-22T14:55:56;24.20;67.60
66710;DHT22;53624;0.000;0.000;2024-03-22T14:58:25;24.30;68.10
66710;DHT22;53624;0.000;0.000;2024-03-22T15:00:55;24.00;70.70
66710;DHT22;53624;0.000;0.000;2024-03-22T15:03:21;24.30;70.30
66710;DHT22;53624;0.000;0.000;2024-03-22T15:05:50;24.40;69.80
66710;DHT22;53624;0.000;0.000;2024-03-22T15:08:16;24.30;66.90
66710;DHT22;53624;0.000;0.000;2024-03-22T15:10:43;24.10;69.80
66710;DHT22;53624;0.000;0.000;2024-03-22T15:13:09;24.20;68.60
66710;DHT22;53624;0.000;0.000;2024-03-22T15:15:39;23.90;69.60
66710;DHT22;53624;0.000;0.000;2024-03-22T15:18:05;24.00;71.80
66710;DHT22;53624;0.000;0.000;2024-03-22T15:20:32;23.60;72.30
66710;DHT22;53624;0.000;0.000;2024-03-22T15:22:58;24.00;73.80
66710;DHT22;53624;0.000;0.000;2024-03-22T15:25:25;24.10;77.20
66710;DHT22;53624;0.000;0.000;2024-03-22T15:27:52;24.10;76.60
66710;DHT22;53624;0.000;0.000;2024-03-22T15:30:19;24.20;76.90
66710;DHT22;53624;0.000;0.000;2024-03-22T15:32:47;24.20;77.20
66710;DHT22;53624;0.000;0.000;2024-03-22T15:35:14;24.10;77.60
66710;DHT22;53624;0.000;0.000;2024-03-22T15:37:40;24.10;77.70
66710;DHT22;53624;0.000;0.000;2024-03-22T15:40:08;24.10;77.90
66710;DHT22;53624;0.000;0.000;2024-03-22T15:42:35;24.00;78.10
66710;DHT22;53624;0.000;0.000;2024-03-22T15:45:02;24.10;78.40
66710;DHT22;53624;0.000;0.000;2024-03-22T15:47:31;24.20;78.50